sensor_id;sensor_type;location;lat;lon;timestamp;temperature;humidity
9987;DHT22;5033;46.310;11.214;2023-07-13T00:00:48;20.30;99.90
9987;DHT22;5033;46.310;11.214;2023-07-13T00:03:15;20.30;99.90
9987;DHT22;5033;46.310;11.214;2023-07-13T00:05:42;20.30;99.90
9987;DHT22;5033;46.310;11.214;2023-07-13T00:08:09;20.30;99.90
9987;DHT22;5033;46.310;11.214;2023-07-13T00:10:40;20.30;99.90
9987;DHT22;5033;46.310;11.214;2023-07-13T00:13:07;20.20;99.90
9987;DHT22;5033;46.310;11.214;2023-07-13T00:15:35;19.90;99.90
9987;DHT22;5033;46.310;11.214;2023-07-13T00:18:02;19.70;99.90
9987;DHT22;5033;46.310;11.214;2023-07-13T00:20:29;19.50;99.90
9987;DHT22;5033;46.310;11.214;2023-07-13T00:22:56;19.50;99.90
9987;DHT22;5033;46.310;11.214;2023-07-13T00:25:23;19.40;99.90
9987;DHT22;5033;46.310;11.214;2023-07-13T00:27:55;19.50;99.90
9987;DHT22;5033;46.310;11.214;2023-07-13T00:30:22;19.60;99.90
9987;DHT22;5033;46.310;11.214;2023-07-13T00:32:49;19.60;99.90
9987;DHT22;5033;46.310;11.214;2023-07-13T00:35:16;19.70;99.90
9987;DHT22;5033;46.310;11.214;2023-07-13T00:37:43;19.80;99.90
9987;DHT22;5033;46.310;11.214;2023-07-13T00:40:12;19.80;99.90
9987;DHT22;5033;46.310;11.214;2023-07-13T00:42:39;19.90;99.90
9987;DHT22;5033;46.310;11.214;2023-07-13T00:48:09;19.70;99.90
9987;DHT22;5033;46.310;11.214;2023-07-13T00:50:36;19.60;99.90
9987;DHT22;5033;46.310;11.214;2023-07-13T00:53:03;19.50;99.90
9987;DHT22;5033;46.310;11.214;2023-07-13T00:55:30;19.60;99.90
9987;DHT22;5033;46.310;11.214;2023-07-13T00:57:58;19.70;99.90
9987;DHT22;5033;46.310;11.214;2023-07-13T01:00:25;19.60;99.90
9987;DHT22;5033;46.310;11.214;2023-07-13T01:02:53;19.30;99.90
9987;DHT22;5033;46.310;11.214;2023-07-13T01:05:24;19.10;99.90
9987;DHT22;5033;46.310;11.214;2023-07-13T01:07:52;18.90;99.90
9987;DHT22;5033;46.310;11.214;2023-07-13T01:10:22;18.80;99.90
9987;DHT22;5033;46.310;11.214;2023-07-13T01:12:49;18.80;99.90
9987;DHT22;5033;46.310;11.214;2023-07-13T01:15:37;18.80;99.90
9987;DHT22;5033;46.310;11.214;2023-07-13T01:18:05;18.80;99.90
9987;DHT22;5033;46.310;11.214;2023-07-13T01:20:35;18.80;99.90
9987;DHT22;5033;46.310;11.214;2023-07-13T01:23:05;18.90;99.90
9987;DHT22;5033;46.310;11.214;2023-07-13T01:25:34;18.90;99.90
9987;DHT22;5033;46.310;11.214;2023-07-13T01:28:01;18.90;99.90
9987;DHT22;5033;46.310;11.214;2023-07-13T01:30:28;19.00;99.90
9987;DHT22;5033;46.310;11.214;2023-07-13T01:32:56;19.10;99.90
9987;DHT22;5033;46.310;11.214;2023-07-13T01:35:23;19.10;99.90
9987;DHT22;5033;46.310;11.214;2023-07-13T01:37:50;19.10;99.90
9987;DHT22;5033;46.310;11.214;2023-07-13T01:40:19;19.00;99.90
9987;DHT22;5033;46.310;11.214;2023-07-13T01:42:46;19.00;99.90
9987;DHT22;5033;46.310;11.214;2023-07-13T01:45:13;19.00;99.90
9987;DHT22;5033;46.310;11.214;2023-07-13T01:47:40;18.90;99.90
9987;DHT22;5033;46.310;11.214;2023-07-13T01:50:08;18.90;99.90
9987;DHT22;5033;46.310;11.214;2023-07-13T01:52:35;18.90;99.90
9987;DHT22;5033;46.310;11.214;2023-07-13T01:55:02;18.90;99.90
9987;DHT22;5033;46.310;11.214;2023-07-13T01:57:31;19.00;99.90
9987;DHT22;5033;46.310;11.214;2023-07-13T01:59:58;19.00;99.90
9987;DHT22;5033;46.310;11.214;2023-07-13T02:02:24;19.00;99.90
9987;DHT22;5033;46.310;11.214;2023-07-13T02:04:51;19.10;99.90
9987;DHT22;5033;46.310;11.214;2023-07-13T02:07:18;19.10;99.90
9987;DHT22;5033;46.310;11.214;2023-07-13T02:09:45;19.10;99.90
9987;DHT22;5033;46.310;11.214;2023-07-13T02:12:12;19.10;99.90
9987;DHT22;5033;46.310;11.214;2023-07-13T02:14:40;19.20;99.90
9987;DHT22;5033;46.310;11.214;2023-07-13T02:17:09;19.20;99.90
9987;DHT22;5033;46.310;11.214;2023-07-13T02:19:36;19.20;99.90
9987;DHT22;5033;46.310;11.214;2023-07-13T02:22:04;19.10;99.90
9987;DHT22;5033;46.310;11.214;2023-07-13T02:24:31;19.10;99.90
9987;DHT22;5033;46.310;11.214;2023-07-13T02:26:58;19.10;99.90
9987;DHT22;5033;46.310;11.214;2023-07-13T02:29:25;19.10;99.90
9987;DHT22;5033;46.310;11.214;2023-07-13T02:31:53;19.20;99.90
9987;DHT22;5033;46.310;11.214;2023-07-13T02:34:20;19.20;99.90
9987;DHT22;5033;46.310;11.214;2023-07-13T02:36:47;19.10;99.90
9987;DHT22;5033;46.310;11.214;2023-07-13T02:39:14;19.10;99.90
9987;DHT22;5033;46.310;11.214;2023-07-13T02:41:41;19.10;99.90
9987;DHT22;5033;46.310;11.214;2023-07-13T02:44:08;19.10;99.90
9987;DHT22;5033;46.310;11.214;2023-07-13T02:46:36;19.00;99.90
9987;DHT22;5033;46.310;11.214;2023-07-13T02:49:05;19.00;99.90
9987;DHT22;5033;46.310;11.214;2023-07-13T02:51:32;19.00;99.90
9987;DHT22;5033;46.310;11.214;2023-07-13T02:53:59;19.00;99.90
9987;DHT22;5033;46.310;11.214;2023-07-13T02:56:28;19.00;99.90
9987;DHT22;5033;46.310;11.214;2023-07-13T02:58:55;19.00;99.90
9987;DHT22;5033;46.310;11.214;2023-07-13T03:01:23;19.00;99.90
9987;DHT22;5033;46.310;11.214;2023-07-13T03:03:51;19.00;99.90
9987;DHT22;5033;46.310;11.214;2023-07-13T03:06:19;19.00;99.90
9987;DHT22;5033;46.310;11.214;2023-07-13T03:08:46;19.10;99.90
9987;DHT22;5033;46.310;11.214;2023-07-13T03:11:17;19.10;99.90
9987;DHT22;5033;46.310;11.214;2023-07-13T03:13:45;19.10;99.90
9987;DHT22;5033;46.310;11.214;2023-07-13T03:16:12;19.00;99.90
9987;DHT22;5033;46.310;11.214;2023-07-13T03:18:41;19.00;99.90
9987;DHT22;5033;46.310;11.214;2023-07-13T03:21:08;19.00;99.90
9987;DHT22;5033;46.310;11.214;2023-07-13T03:23:37;19.10;99.90
9987;DHT22;5033;46.310;11.214;2023-07-13T03:26:06;19.10;99.90
9987;DHT22;5033;46.310;11.214;2023-07-13T03:28:33;19.10;99.90
9987;DHT22;5033;46.310;11.214;2023-07-13T03:31:01;19.10;99.90
9987;DHT22;5033;46.310;11.214;2023-07-13T03:33:28;19.10;99.90
9987;DHT22;5033;46.310;11.214;2023-07-13T03:35:55;19.10;99.90
9987;DHT22;5033;46.310;11.214;2023-07-13T03:38:22;19.00;99.90
9987;DHT22;5033;46.310;11.214;2023-07-13T03:40:51;19.00;99.90
9987;DHT22;5033;46.310;11.214;2023-07-13T03:43:18;19.00;99.90
9987;DHT22;5033;46.310;11.214;2023-07-13T03:45:46;18.90;99.90
9987;DHT22;5033;46.310;11.214;2023-07-13T03:48:13;18.90;99.90
9987;DHT22;5033;46.310;11.214;2023-07-13T03:50:41;18.80;99.90
9987;DHT22;5033;46.310;11.214;2023-07-13T03:53:08;18.80;99.90
9987;DHT22;5033;46.310;11.214;2023-07-13T03:55:35;18.80;99.90
9987;DHT22;5033;46.310;11.214;2023-07-13T03:58:25;18.80;99.90
9987;DHT22;5033;46.310;11.214;2023-07-13T04:00:52;18.80;99.90
9987;DHT22;5033;46.310;11.214;2023-07-13T04:03:19;18.80;99.90
9987;DHT22;5033;46.310;11.214;2023-07-13T04:05:46;18.80;99.90
9987;DHT22;5033;46.310;11.214;2023-07-13T04:08:13;18.80;99.90
9987;DHT22;5033;46.310;11.214;2023-07-13T04:10:40;18.90;99.90
9987;DHT22;5033;46.310;11.214;2023-07-13T04:13:06;18.90;99.90
9987;DHT22;5033;46.310;11.214;2023-07-13T04:15:35;18.90;99.90
9987;DHT22;5033;46.310;11.214;2023-07-13T04:18:02;18.90;99.90
9987;DHT22;5033;46.310;11.214;2023-07-13T04:20:29;19.00;99.90
9987;DHT22;5033;46.310;11.214;2023-07-13T04:22:56;19.10;99.90
9987;DHT22;5033;46.310;11.214;2023-07-13T04:25:24;19.20;99.90
9987;DHT22;5033;46.310;11.214;2023-07-13T04:27:51;19.20;99.90
9987;DHT22;5033;46.310;11.214;2023-07-13T04:30:18;19.30;99.90
9987;DHT22;5033;46.310;11.214;2023-07-13T04:32:47;19.40;99.90
9987;DHT22;5033;46.310;11.214;2023-07-13T04:35:14;19.50;99.90
9987;DHT22;5033;46.310;11.214;2023-07-13T04:37:41;19.60;99.90
9987;DHT22;5033;46.310;11.214;2023-07-13T04:40:08;19.70;99.90
9987;DHT22;5033;46.310;11.214;2023-07-13T04:42:37;19.80;99.90
9987;DHT22;5033;46.310;11.214;2023-07-13T04:45:06;19.90;99.90
9987;DHT22;5033;46.310;11.214;2023-07-13T04:47:33;20.00;99.90
9987;DHT22;5033;46.310;11.214;2023-07-13T04:50:02;20.20;99.90
9987;DHT22;5033;46.310;11.214;2023-07-13T04:52:30;20.30;99.90
9987;DHT22;5033;46.310;11.214;2023-07-13T04:54:58;20.30;99.90
9987;DHT22;5033;46.310;11.214;2023-07-13T04:57:26;20.50;99.90
9987;DHT22;5033;46.310;11.214;2023-07-13T04:59:53;20.40;99.90
9987;DHT22;5033;46.310;11.214;2023-07-13T05:02:21;20.40;99.90
9987;DHT22;5033;46.310;11.214;2023-07-13T05:04:48;20.20;99.90
9987;DHT22;5033;46.310;11.214;2023-07-13T05:07:17;20.20;99.90
9987;DHT22;5033;46.310;11.214;2023-07-13T05:09:44;20.10;99.90
9987;DHT22;5033;46.310;11.214;2023-07-13T05:12:11;20.20;99.90
9987;DHT22;5033;46.310;11.214;2023-07-13T05:14:38;20.30;99.90
9987;DHT22;5033;46.310;11.214;2023-07-13T05:17:05;20.20;99.90
9987;DHT22;5033;46.310;11.214;2023-07-13T05:19:32;20.20;99.90
9987;DHT22;5033;46.310;11.214;2023-07-13T05:21:59;20.20;99.90
9987;DHT22;5033;46.310;11.214;2023-07-13T05:24:27;20.10;99.90
9987;DHT22;5033;46.310;11.214;2023-07-13T05:26:54;20.00;99.90
9987;DHT22;5033;46.310;11.214;2023-07-13T05:29:21;19.90;99.90
9987;DHT22;5033;46.310;11.214;2023-07-13T05:31:49;19.80;99.90
9987;DHT22;5033;46.310;11.214;2023-07-13T05:34:16;20.00;99.90
9987;DHT22;5033;46.310;11.214;2023-07-13T05:36:42;20.30;99.90
9987;DHT22;5033;46.310;11.214;2023-07-13T05:39:09;20.20;99.90
9987;DHT22;5033;46.310;11.214;2023-07-13T05:41:38;20.10;99.90
9987;DHT22;5033;46.310;11.214;2023-07-13T05:44:05;20.50;99.90
9987;DHT22;5033;46.310;11.214;2023-07-13T05:46:32;21.00;99.90
9987;DHT22;5033;46.310;11.214;2023-07-13T05:49:00;21.30;99.90
9987;DHT22;5033;46.310;11.214;2023-07-13T05:51:27;21.50;99.90
9987;DHT22;5033;46.310;11.214;2023-07-13T05:53:54;21.50;99.90
9987;DHT22;5033;46.310;11.214;2023-07-13T05:56:21;21.50;99.90
9987;DHT22;5033;46.310;11.214;2023-07-13T05:58:49;21.40;99.90
9987;DHT22;5033;46.310;11.214;2023-07-13T06:01:16;21.20;99.90
9987;DHT22;5033;46.310;11.214;2023-07-13T06:03:45;21.00;99.90
9987;DHT22;5033;46.310;11.214;2023-07-13T06:06:13;20.70;99.90
9987;DHT22;5033;46.310;11.214;2023-07-13T06:08:40;20.70;99.90
9987;DHT22;5033;46.310;11.214;2023-07-13T06:11:10;21.00;99.90
9987;DHT22;5033;46.310;11.214;2023-07-13T06:13:39;21.30;99.90
9987;DHT22;5033;46.310;11.214;2023-07-13T06:16:07;21.50;99.90
9987;DHT22;5033;46.310;11.214;2023-07-13T06:18:36;21.40;99.90
9987;DHT22;5033;46.310;11.214;2023-07-13T06:21:06;21.30;99.90
9987;DHT22;5033;46.310;11.214;2023-07-13T06:23:34;21.30;99.90
9987;DHT22;5033;46.310;11.214;2023-07-13T06:26:02;21.10;99.90
9987;DHT22;5033;46.310;11.214;2023-07-13T06:28:29;20.80;99.90
9987;DHT22;5033;46.310;11.214;2023-07-13T06:30:57;20.50;99.90
9987;DHT22;5033;46.310;11.214;2023-07-13T06:33:26;20.40;99.90
9987;DHT22;5033;46.310;11.214;2023-07-13T06:35:53;20.60;99.90
9987;DHT22;5033;46.310;11.214;2023-07-13T06:38:20;20.60;99.90
9987;DHT22;5033;46.310;11.214;2023-07-13T06:40:47;20.60;99.90
9987;DHT22;5033;46.310;11.214;2023-07-13T06:43:14;20.80;99.90
9987;DHT22;5033;46.310;11.214;2023-07-13T06:45:43;20.80;99.90
9987;DHT22;5033;46.310;11.214;2023-07-13T06:48:11;20.70;99.90
9987;DHT22;5033;46.310;11.214;2023-07-13T06:50:40;20.60;99.90
9987;DHT22;5033;46.310;11.214;2023-07-13T06:53:10;20.70;99.90
9987;DHT22;5033;46.310;11.214;2023-07-13T06:55:37;20.70;99.90
9987;DHT22;5033;46.310;11.214;2023-07-13T06:58:04;20.70;99.90
9987;DHT22;5033;46.310;11.214;2023-07-13T07:00:31;20.80;99.90
9987;DHT22;5033;46.310;11.214;2023-07-13T07:02:58;20.70;99.90
9987;DHT22;5033;46.310;11.214;2023-07-13T07:05:25;20.70;99.90
9987;DHT22;5033;46.310;11.214;2023-07-13T07:07:54;20.80;99.90
9987;DHT22;5033;46.310;11.214;2023-07-13T07:10:22;20.90;99.90
9987;DHT22;5033;46.310;11.214;2023-07-13T07:12:49;20.90;99.90
9987;DHT22;5033;46.310;11.214;2023-07-13T07:15:17;21.00;99.90
9987;DHT22;5033;46.310;11.214;2023-07-13T07:17:44;20.90;99.90
9987;DHT22;5033;46.310;11.214;2023-07-13T07:20:12;20.90;99.90
9987;DHT22;5033;46.310;11.214;2023-07-13T07:22:39;21.00;99.90
9987;DHT22;5033;46.310;11.214;2023-07-13T07:25:07;21.30;99.90
9987;DHT22;5033;46.310;11.214;2023-07-13T07:27:34;21.40;99.90
9987;DHT22;5033;46.310;11.214;2023-07-13T07:30:01;21.40;99.90
9987;DHT22;5033;46.310;11.214;2023-07-13T07:32:30;21.40;99.90
9987;DHT22;5033;46.310;11.214;2023-07-13T07:34:57;21.40;99.90
9987;DHT22;5033;46.310;11.214;2023-07-13T07:37:24;21.40;99.90
9987;DHT22;5033;46.310;11.214;2023-07-13T07:39:51;21.50;99.90
9987;DHT22;5033;46.310;11.214;2023-07-13T07:42:19;21.50;99.90
9987;DHT22;5033;46.310;11.214;2023-07-13T07:44:46;21.50;99.90
9987;DHT22;5033;46.310;11.214;2023-07-13T07:47:13;21.50;99.90
9987;DHT22;5033;46.310;11.214;2023-07-13T07:49:40;21.40;99.90
9987;DHT22;5033;46.310;11.214;2023-07-13T07:52:08;21.40;99.90
9987;DHT22;5033;46.310;11.214;2023-07-13T07:54:35;21.30;99.90
9987;DHT22;5033;46.310;11.214;2023-07-13T07:57:02;21.30;99.90
9987;DHT22;5033;46.310;11.214;2023-07-13T07:59:30;21.40;99.90
9987;DHT22;5033;46.310;11.214;2023-07-13T08:01:57;21.60;99.90
9987;DHT22;5033;46.310;11.214;2023-07-13T08:04:24;21.80;99.90
9987;DHT22;5033;46.310;11.214;2023-07-13T08:06:51;21.80;99.90
9987;DHT22;5033;46.310;11.214;2023-07-13T08:09:18;21.90;99.90
9987;DHT22;5033;46.310;11.214;2023-07-13T08:11:45;21.90;99.90
9987;DHT22;5033;46.310;11.214;2023-07-13T08:14:11;21.90;99.90
9987;DHT22;5033;46.310;11.214;2023-07-13T08:16:40;21.90;99.90
9987;DHT22;5033;46.310;11.214;2023-07-13T08:19:07;21.80;99.90
9987;DHT22;5033;46.310;11.214;2023-07-13T08:21:33;21.90;99.90
9987;DHT22;5033;46.310;11.214;2023-07-13T08:24:00;22.20;99.90
9987;DHT22;5033;46.310;11.214;2023-07-13T08:26:27;22.60;99.90
9987;DHT22;5033;46.310;11.214;2023-07-13T08:28:54;22.80;99.90
9987;DHT22;5033;46.310;11.214;2023-07-13T08:31:21;22.70;99.90
9987;DHT22;5033;46.310;11.214;2023-07-13T08:33:50;22.40;99.90
9987;DHT22;5033;46.310;11.214;2023-07-13T08:36:17;22.20;99.90
9987;DHT22;5033;46.310;11.214;2023-07-13T08:38:43;22.10;99.90
9987;DHT22;5033;46.310;11.214;2023-07-13T08:41:13;22.30;99.90
9987;DHT22;5033;46.310;11.214;2023-07-13T08:43:41;22.60;99.90
9987;DHT22;5033;46.310;11.214;2023-07-13T08:46:12;22.90;99.90
9987;DHT22;5033;46.310;11.214;2023-07-13T08:48:44;23.00;99.90
9987;DHT22;5033;46.310;11.214;2023-07-13T08:51:24;22.90;99.90
9987;DHT22;5033;46.310;11.214;2023-07-13T08:53:57;22.80;99.90
9987;DHT22;5033;46.310;11.214;2023-07-13T08:56:28;22.90;99.90
9987;DHT22;5033;46.310;11.214;2023-07-13T08:58:57;23.30;99.90
9987;DHT22;5033;46.310;11.214;2023-07-13T09:01:30;23.30;99.90
9987;DHT22;5033;46.310;11.214;2023-07-13T09:04:05;23.30;99.90
9987;DHT22;5033;46.310;11.214;2023-07-13T09:06:42;23.30;99.90
9987;DHT22;5033;46.310;11.214;2023-07-13T09:09:22;23.40;99.90
9987;DHT22;5033;46.310;11.214;2023-07-13T09:11:56;23.60;99.90
9987;DHT22;5033;46.310;11.214;2023-07-13T09:14:42;24.00;99.90
9987;DHT22;5033;46.310;11.214;2023-07-13T09:17:18;24.50;99.90
9987;DHT22;5033;46.310;11.214;2023-07-13T09:19:48;24.70;99.90
9987;DHT22;5033;46.310;11.214;2023-07-13T09:22:21;24.60;99.90
9987;DHT22;5033;46.310;11.214;2023-07-13T09:24:57;24.50;99.90
9987;DHT22;5033;46.310;11.214;2023-07-13T09:27:30;24.60;99.90
9987;DHT22;5033;46.310;11.214;2023-07-13T09:30:08;24.60;99.90
9987;DHT22;5033;46.310;11.214;2023-07-13T09:32:39;24.60;99.90
9987;DHT22;5033;46.310;11.214;2023-07-13T09:35:11;24.80;99.90
9987;DHT22;5033;46.310;11.214;2023-07-13T09:37:39;24.80;99.90
9987;DHT22;5033;46.310;11.214;2023-07-13T09:40:18;24.90;99.90
9987;DHT22;5033;46.310;11.214;2023-07-13T09:42:48;25.00;99.90
9987;DHT22;5033;46.310;11.214;2023-07-13T09:45:26;25.30;99.90
9987;DHT22;5033;46.310;11.214;2023-07-13T09:47:59;25.50;99.90
9987;DHT22;5033;46.310;11.214;2023-07-13T09:50:26;25.50;99.90
9987;DHT22;5033;46.310;11.214;2023-07-13T09:52:56;25.50;99.90
9987;DHT22;5033;46.310;11.214;2023-07-13T09:55:26;25.40;99.90
9987;DHT22;5033;46.310;11.214;2023-07-13T09:57:53;25.30;99.90
9987;DHT22;5033;46.310;11.214;2023-07-13T10:00:22;24.90;99.90
9987;DHT22;5033;46.310;11.214;2023-07-13T10:02:59;24.80;99.90
9987;DHT22;5033;46.310;11.214;2023-07-13T10:05:26;25.10;99.90
9987;DHT22;5033;46.310;11.214;2023-07-13T10:07:57;25.50;99.90
9987;DHT22;5033;46.310;11.214;2023-07-13T10:10:24;25.70;99.90
9987;DHT22;5033;46.310;11.214;2023-07-13T10:12:51;25.90;99.90
9987;DHT22;5033;46.310;11.214;2023-07-13T10:15:19;25.90;99.90
9987;DHT22;5033;46.310;11.214;2023-07-13T10:17:47;26.00;99.90
9987;DHT22;5033;46.310;11.214;2023-07-13T10:20:16;26.00;99.90
9987;DHT22;5033;46.310;11.214;2023-07-13T10:22:57;25.90;99.90
9987;DHT22;5033;46.310;11.214;2023-07-13T10:25:31;25.90;99.90
9987;DHT22;5033;46.310;11.214;2023-07-13T10:28:03;26.00;99.90
9987;DHT22;5033;46.310;11.214;2023-07-13T10:30:35;26.10;99.90
9987;DHT22;5033;46.310;11.214;2023-07-13T10:33:10;26.30;99.90
9987;DHT22;5033;46.310;11.214;2023-07-13T10:35:40;26.20;99.90
9987;DHT22;5033;46.310;11.214;2023-07-13T10:38:12;26.20;99.90
9987;DHT22;5033;46.310;11.214;2023-07-13T10:40:45;26.10;99.90
9987;DHT22;5033;46.310;11.214;2023-07-13T10:43:24;26.00;99.90
9987;DHT22;5033;46.310;11.214;2023-07-13T10:45:53;26.00;99.90
9987;DHT22;5033;46.310;11.214;2023-07-13T10:48:21;26.10;99.90
9987;DHT22;5033;46.310;11.214;2023-07-13T10:50:51;26.20;99.90
9987;DHT22;5033;46.310;11.214;2023-07-13T10:53:22;26.40;99.90
9987;DHT22;5033;46.310;11.214;2023-07-13T10:56:01;26.50;99.90
9987;DHT22;5033;46.310;11.214;2023-07-13T10:58:35;26.80;99.90
9987;DHT22;5033;46.310;11.214;2023-07-13T11:01:08;27.00;99.90
9987;DHT22;5033;46.310;11.214;2023-07-13T11:03:38;27.00;99.90
9987;DHT22;5033;46.310;11.214;2023-07-13T11:06:16;27.10;99.90
9987;DHT22;5033;46.310;11.214;2023-07-13T11:08:52;27.30;99.90
9987;DHT22;5033;46.310;11.214;2023-07-13T11:11:36;27.70;99.90
9987;DHT22;5033;46.310;11.214;2023-07-13T11:14:04;28.20;99.90
9987;DHT22;5033;46.310;11.214;2023-07-13T11:16:42;28.50;99.90
9987;DHT22;5033;46.310;11.214;2023-07-13T11:22:41;27.80;99.90
9987;DHT22;5033;46.310;11.214;2023-07-13T11:25:26;27.10;99.90
9987;DHT22;5033;46.310;11.214;2023-07-13T11:28:14;26.80;99.90
9987;DHT22;5033;46.310;11.214;2023-07-13T11:30:46;26.80;99.90
9987;DHT22;5033;46.310;11.214;2023-07-13T11:33:17;27.10;99.90
9987;DHT22;5033;46.310;11.214;2023-07-13T11:35:57;27.50;99.90
9987;DHT22;5033;46.310;11.214;2023-07-13T11:38:30;27.70;99.90
9987;DHT22;5033;46.310;11.214;2023-07-13T11:41:00;27.70;99.90
9987;DHT22;5033;46.310;11.214;2023-07-13T11:43:30;27.40;99.90
9987;DHT22;5033;46.310;11.214;2023-07-13T11:46:11;27.10;99.90
9987;DHT22;5033;46.310;11.214;2023-07-13T11:48:38;26.80;99.90
9987;DHT22;5033;46.310;11.214;2023-07-13T11:51:06;27.00;99.90
9987;DHT22;5033;46.310;11.214;2023-07-13T11:53:39;27.20;99.90
9987;DHT22;5033;46.310;11.214;2023-07-13T11:56:07;27.20;99.90
9987;DHT22;5033;46.310;11.214;2023-07-13T11:58:35;27.00;99.90
9987;DHT22;5033;46.310;11.214;2023-07-13T12:01:03;26.90;99.90
9987;DHT22;5033;46.310;11.214;2023-07-13T12:03:32;26.70;99.90
9987;DHT22;5033;46.310;11.214;2023-07-13T12:06:01;26.50;99.90
9987;DHT22;5033;46.310;11.214;2023-07-13T12:08:31;26.40;99.90
9987;DHT22;5033;46.310;11.214;2023-07-13T12:11:04;26.20;99.90
9987;DHT22;5033;46.310;11.214;2023-07-13T12:13:39;26.00;99.90
9987;DHT22;5033;46.310;11.214;2023-07-13T12:16:15;25.80;99.90
9987;DHT22;5033;46.310;11.214;2023-07-13T12:18:43;25.70;99.90
9987;DHT22;5033;46.310;11.214;2023-07-13T12:21:17;25.60;99.90
9987;DHT22;5033;46.310;11.214;2023-07-13T12:23:48;25.50;99.90
9987;DHT22;5033;46.310;11.214;2023-07-13T12:26:17;25.40;99.90
9987;DHT22;5033;46.310;11.214;2023-07-13T12:28:47;25.40;99.90
9987;DHT22;5033;46.310;11.214;2023-07-13T12:31:31;25.20;99.90
9987;DHT22;5033;46.310;11.214;2023-07-13T12:34:03;24.60;99.90
9987;DHT22;5033;46.310;11.214;2023-07-13T12:36:32;23.90;99.90
9987;DHT22;5033;46.310;11.214;2023-07-13T12:39:04;23.60;99.90
9987;DHT22;5033;46.310;11.214;2023-07-13T12:41:32;23.20;99.90
9987;DHT22;5033;46.310;11.214;2023-07-13T12:44:01;23.10;99.90
9987;DHT22;5033;46.310;11.214;2023-07-13T12:46:28;23.10;99.90
9987;DHT22;5033;46.310;11.214;2023-07-13T12:48:57;23.30;99.90
9987;DHT22;5033;46.310;11.214;2023-07-13T12:51:26;23.20;99.90
9987;DHT22;5033;46.310;11.214;2023-07-13T12:53:58;23.20;99.90
9987;DHT22;5033;46.310;11.214;2023-07-13T12:56:27;23.20;99.90
9987;DHT22;5033;46.310;11.214;2023-07-13T12:58:58;23.30;99.90
9987;DHT22;5033;46.310;11.214;2023-07-13T13:01:31;23.30;99.90
9987;DHT22;5033;46.310;11.214;2023-07-13T13:04:01;23.40;99.90
9987;DHT22;5033;46.310;11.214;2023-07-13T13:06:30;23.50;99.90
9987;DHT22;5033;46.310;11.214;2023-07-13T13:08:58;23.50;99.90
9987;DHT22;5033;46.310;11.214;2023-07-13T13:11:29;23.50;99.90
9987;DHT22;5033;46.310;11.214;2023-07-13T13:13:56;23.50;99.90
9987;DHT22;5033;46.310;11.214;2023-07-13T13:16:26;23.50;99.90
9987;DHT22;5033;46.310;11.214;2023-07-13T13:18:59;23.50;99.90
9987;DHT22;5033;46.310;11.214;2023-07-13T13:21:28;23.40;99.90
9987;DHT22;5033;46.310;11.214;2023-07-13T13:23:55;23.40;99.90
9987;DHT22;5033;46.310;11.214;2023-07-13T13:26:24;23.40;99.90
9987;DHT22;5033;46.310;11.214;2023-07-13T13:28:51;23.40;99.90
9987;DHT22;5033;46.310;11.214;2023-07-13T13:31:19;23.40;99.90
9987;DHT22;5033;46.310;11.214;2023-07-13T13:33:46;23.40;99.90
9987;DHT22;5033;46.310;11.214;2023-07-13T13:36:20;23.50;99.90
9987;DHT22;5033;46.310;11.214;2023-07-13T13:38:48;23.40;99.90
9987;DHT22;5033;46.310;11.214;2023-07-13T13:41:15;23.10;99.90
9987;DHT22;5033;46.310;11.214;2023-07-13T13:43:43;22.80;99.90
9987;DHT22;5033;46.310;11.214;2023-07-13T13:46:16;22.80;99.90
9987;DHT22;5033;46.310;11.214;2023-07-13T13:48:44;23.20;99.90
9987;DHT22;5033;46.310;11.214;2023-07-13T13:51:17;23.30;99.90
9987;DHT22;5033;46.310;11.214;2023-07-13T13:53:45;23.20;99.90
9987;DHT22;5033;46.310;11.214;2023-07-13T13:56:12;23.00;99.90
9987;DHT22;5033;46.310;11.214;2023-07-13T13:58:39;22.90;99.90
9987;DHT22;5033;46.310;11.214;2023-07-13T14:01:12;22.90;99.90
9987;DHT22;5033;46.310;11.214;2023-07-13T14:03:40;23.10;99.90
9987;DHT22;5033;46.310;11.214;2023-07-13T14:06:10;23.30;99.90
9987;DHT22;5033;46.310;11.214;2023-07-13T14:08:39;23.40;99.90
9987;DHT22;5033;46.310;11.214;2023-07-13T14:11:08;23.40;99.90
9987;DHT22;5033;46.310;11.214;2023-07-13T14:13:40;23.50;99.90
9987;DHT22;5033;46.310;11.214;2023-07-13T14:16:11;23.60;99.90
9987;DHT22;5033;46.310;11.214;2023-07-13T14:18:38;23.60;99.90
9987;DHT22;5033;46.310;11.214;2023-07-13T14:21:11;23.60;99.90
9987;DHT22;5033;46.310;11.214;2023-07-13T14:23:40;23.70;99.90
9987;DHT22;5033;46.310;11.214;2023-07-13T14:26:11;23.60;99.90
9987;DHT22;5033;46.310;11.214;2023-07-13T14:28:42;23.50;99.90
9987;DHT22;5033;46.310;11.214;2023-07-13T14:31:11;23.40;99.90
9987;DHT22;5033;46.310;11.214;2023-07-13T14:33:38;23.40;99.90
9987;DHT22;5033;46.310;11.214;2023-07-13T14:36:25;23.40;99.90
9987;DHT22;5033;46.310;11.214;2023-07-13T14:38:56;23.40;99.90
9987;DHT22;5033;46.310;11.214;2023-07-13T14:41:23;23.10;99.90
9987;DHT22;5033;46.310;11.214;2023-07-13T14:43:50;22.60;99.90
9987;DHT22;5033;46.310;11.214;2023-07-13T14:46:26;22.30;99.90
9987;DHT22;5033;46.310;11.214;2023-07-13T14:48:59;22.00;99.90
9987;DHT22;5033;46.310;11.214;2023-07-13T14:51:27;21.70;99.90
9987;DHT22;5033;46.310;11.214;2023-07-13T14:53:55;21.60;99.90
9987;DHT22;5033;46.310;11.214;2023-07-13T14:56:22;21.60;99.90
9987;DHT22;5033;46.310;11.214;2023-07-13T14:58:49;21.60;99.90
9987;DHT22;5033;46.310;11.214;2023-07-13T15:01:17;21.70;99.90
9987;DHT22;5033;46.310;11.214;2023-07-13T15:03:47;21.90;99.90
9987;DHT22;5033;46.310;11.214;2023-07-13T15:06:15;21.90;99.90
9987;DHT22;5033;46.310;11.214;2023-07-13T15:08:42;21.90;99.90
9987;DHT22;5033;46.310;11.214;2023-07-13T15:11:11;22.00;99.90
9987;DHT22;5033;46.310;11.214;2023-07-13T15:13:39;21.90;99.90
9987;DHT22;5033;46.310;11.214;2023-07-13T15:16:14;22.00;99.90
9987;DHT22;5033;46.310;11.214;2023-07-13T15:18:43;22.10;99.90
9987;DHT22;5033;46.310;11.214;2023-07-13T15:21:11;22.50;99.90
9987;DHT22;5033;46.310;11.214;2023-07-13T15:23:40;22.90;99.90
9987;DHT22;5033;46.310;11.214;2023-07-13T15:26:12;23.20;99.90
9987;DHT22;5033;46.310;11.214;2023-07-13T15:28:41;23.40;99.90
9987;DHT22;5033;46.310;11.214;2023-07-13T15:31:19;23.40;99.90
9987;DHT22;5033;46.310;11.214;2023-07-13T15:33:46;23.60;99.90
9987;DHT22;5033;46.310;11.214;2023-07-13T15:36:15;23.70;99.90
9987;DHT22;5033;46.310;11.214;2023-07-13T15:38:43;23.80;99.90
9987;DHT22;5033;46.310;11.214;2023-07-13T15:41:17;23.80;99.90
9987;DHT22;5033;46.310;11.214;2023-07-13T15:43:44;23.80;99.90
9987;DHT22;5033;46.310;11.214;2023-07-13T15:46:11;23.90;99.90
9987;DHT22;5033;46.310;11.214;2023-07-13T15:48:38;24.00;99.90
9987;DHT22;5033;46.310;11.214;2023-07-13T15:51:08;24.00;99.90
9987;DHT22;5033;46.310;11.214;2023-07-13T15:53:39;24.10;99.90
9987;DHT22;5033;46.310;11.214;2023-07-13T15:56:19;24.10;99.90
9987;DHT22;5033;46.310;11.214;2023-07-13T15:58:47;24.00;99.90
9987;DHT22;5033;46.310;11.214;2023-07-13T16:01:15;23.90;99.90
9987;DHT22;5033;46.310;11.214;2023-07-13T16:03:42;23.70;99.90